sensor_id;sensor_type;location;lat;lon;timestamp;P1;durP1;ratioP1;P2;durP2;ratioP2
45420;SDS011;55462;47.042;8.292;2022-09-24T00:00:26;6.60;;;3.90;;
45420;SDS011;55462;47.042;8.292;2022-09-24T00:02:51;4.97;;;3.85;;
45420;SDS011;55462;47.042;8.292;2022-09-24T00:05:16;4.18;;;3.88;;
45420;SDS011;55462;47.042;8.292;2022-09-24T00:07:42;4.10;;;3.72;;
45420;SDS011;55462;47.042;8.292;2022-09-24T00:10:07;7.38;;;4.18;;
45420;SDS011;55462;47.042;8.292;2022-09-24T00:12:33;4.22;;;3.85;;
45420;SDS011;55462;47.042;8.292;2022-09-24T00:14:58;3.92;;;3.40;;
45420;SDS011;55462;47.042;8.292;2022-09-24T00:17:24;4.93;;;3.85;;
45420;SDS011;55462;47.042;8.292;2022-09-24T00:19:49;3.95;;;3.65;;
45420;SDS011;55462;47.042;8.292;2022-09-24T00:22:14;4.15;;;3.75;;
45420;SDS011;55462;47.042;8.292;2022-09-24T00:24:39;4.57;;;4.18;;
45420;SDS011;55462;47.042;8.292;2022-09-24T00:27:23;5.13;;;3.80;;
45420;SDS011;55462;47.042;8.292;2022-09-24T00:29:49;4.72;;;4.22;;
45420;SDS011;55462;47.042;8.292;2022-09-24T00:32:14;4.82;;;4.43;;
45420;SDS011;55462;47.042;8.292;2022-09-24T00:34:40;4.50;;;4.10;;
45420;SDS011;55462;47.042;8.292;2022-09-24T00:37:05;5.43;;;4.20;;
45420;SDS011;55462;47.042;8.292;2022-09-24T00:39:30;4.75;;;3.42;;
45420;SDS011;55462;47.042;8.292;2022-09-24T00:41:55;6.05;;;3.95;;
45420;SDS011;55462;47.042;8.292;2022-09-24T00:47:05;4.30;;;3.90;;
45420;SDS011;55462;47.042;8.292;2022-09-24T00:49:34;4.20;;;3.90;;
45420;SDS011;55462;47.042;8.292;2022-09-24T00:51:59;7.10;;;3.85;;
45420;SDS011;55462;47.042;8.292;2022-09-24T00:54:25;7.88;;;4.18;;
45420;SDS011;55462;47.042;8.292;2022-09-24T00:56:53;3.92;;;3.60;;
45420;SDS011;55462;47.042;8.292;2022-09-24T00:59:20;4.75;;;3.70;;
45420;SDS011;55462;47.042;8.292;2022-09-24T01:01:47;3.80;;;3.45;;
45420;SDS011;55462;47.042;8.292;2022-09-24T01:04:15;6.30;;;4.00;;
45420;SDS011;55462;47.042;8.292;2022-09-24T01:06:41;5.45;;;4.60;;
45420;SDS011;55462;47.042;8.292;2022-09-24T01:09:07;7.03;;;4.95;;
45420;SDS011;55462;47.042;8.292;2022-09-24T01:23:54;4.80;;;4.30;;
45420;SDS011;55462;47.042;8.292;2022-09-24T01:31:42;6.10;;;4.47;;
45420;SDS011;55462;47.042;8.292;2022-09-24T01:34:08;5.25;;;4.75;;
45420;SDS011;55462;47.042;8.292;2022-09-24T01:36:36;5.35;;;4.85;;
45420;SDS011;55462;47.042;8.292;2022-09-24T01:39:04;5.10;;;4.70;;
45420;SDS011;55462;47.042;8.292;2022-09-24T01:41:31;4.78;;;4.38;;
45420;SDS011;55462;47.042;8.292;2022-09-24T01:43:58;6.35;;;5.13;;
45420;SDS011;55462;47.042;8.292;2022-09-24T01:46:24;5.18;;;4.65;;
45420;SDS011;55462;47.042;8.292;2022-09-24T01:48:50;5.20;;;4.60;;
45420;SDS011;55462;47.042;8.292;2022-09-24T01:54:06;4.50;;;4.20;;
45420;SDS011;55462;47.042;8.292;2022-09-24T01:56:41;4.78;;;4.38;;
45420;SDS011;55462;47.042;8.292;2022-09-24T01:59:38;5.07;;;4.60;;
45420;SDS011;55462;47.042;8.292;2022-09-24T02:04:36;8.25;;;4.40;;
45420;SDS011;55462;47.042;8.292;2022-09-24T02:07:19;6.20;;;4.40;;
45420;SDS011;55462;47.042;8.292;2022-09-24T02:10:13;4.60;;;4.30;;
45420;SDS011;55462;47.042;8.292;2022-09-24T02:12:40;4.63;;;4.32;;
45420;SDS011;55462;47.042;8.292;2022-09-24T02:15:10;4.80;;;4.40;;
45420;SDS011;55462;47.042;8.292;2022-09-24T02:17:40;4.63;;;4.22;;
45420;SDS011;55462;47.042;8.292;2022-09-24T02:20:08;4.13;;;3.83;;
45420;SDS011;55462;47.042;8.292;2022-09-24T02:22:37;5.95;;;4.10;;
45420;SDS011;55462;47.042;8.292;2022-09-24T02:25:04;4.90;;;3.88;;
45420;SDS011;55462;47.042;8.292;2022-09-24T02:27:30;4.80;;;4.13;;
45420;SDS011;55462;47.042;8.292;2022-09-24T02:29:56;4.35;;;3.95;;
45420;SDS011;55462;47.042;8.292;2022-09-24T02:32:22;3.90;;;3.60;;
45420;SDS011;55462;47.042;8.292;2022-09-24T02:34:51;5.65;;;4.05;;
45420;SDS011;55462;47.042;8.292;2022-09-24T02:37:20;6.82;;;3.47;;
45420;SDS011;55462;47.042;8.292;2022-09-24T02:39:46;6.18;;;4.93;;
45420;SDS011;55462;47.042;8.292;2022-09-24T02:42:12;9.32;;;4.90;;
45420;SDS011;55462;47.042;8.292;2022-09-24T02:44:38;6.05;;;4.65;;
45420;SDS011;55462;47.042;8.292;2022-09-24T02:47:03;7.35;;;5.28;;
45420;SDS011;55462;47.042;8.292;2022-09-24T02:49:30;4.95;;;4.55;;
45420;SDS011;55462;47.042;8.292;2022-09-24T02:51:55;5.22;;;4.72;;
45420;SDS011;55462;47.042;8.292;2022-09-24T02:54:21;4.68;;;4.28;;
45420;SDS011;55462;47.042;8.292;2022-09-24T02:56:47;6.45;;;5.10;;
45420;SDS011;55462;47.042;8.292;2022-09-24T02:59:13;6.35;;;5.60;;
45420;SDS011;55462;47.042;8.292;2022-09-24T03:01:38;5.53;;;5.07;;
45420;SDS011;55462;47.042;8.292;2022-09-24T03:04:04;6.13;;;5.30;;
45420;SDS011;55462;47.042;8.292;2022-09-24T03:06:29;6.20;;;5.13;;
45420;SDS011;55462;47.042;8.292;2022-09-24T03:08:55;5.25;;;4.85;;
45420;SDS011;55462;47.042;8.292;2022-09-24T03:11:21;5.18;;;4.78;;
45420;SDS011;55462;47.042;8.292;2022-09-24T03:13:47;4.93;;;4.53;;
45420;SDS011;55462;47.042;8.292;2022-09-24T03:16:12;10.10;;;5.05;;
45420;SDS011;55462;47.042;8.292;2022-09-24T03:18:38;6.82;;;5.68;;
45420;SDS011;55462;47.042;8.292;2022-09-24T03:21:04;7.22;;;4.97;;
45420;SDS011;55462;47.042;8.292;2022-09-24T03:23:32;7.75;;;6.25;;
45420;SDS011;55462;47.042;8.292;2022-09-24T03:25:58;8.23;;;6.20;;
45420;SDS011;55462;47.042;8.292;2022-09-24T03:28:23;7.32;;;6.57;;
45420;SDS011;55462;47.042;8.292;2022-09-24T03:30:48;7.07;;;6.38;;
45420;SDS011;55462;47.042;8.292;2022-09-24T03:33:27;6.70;;;6.20;;
45420;SDS011;55462;47.042;8.292;2022-09-24T03:35:57;6.25;;;5.80;;
45420;SDS011;55462;47.042;8.292;2022-09-24T03:38:26;7.05;;;6.32;;
45420;SDS011;55462;47.042;8.292;2022-09-24T03:40:52;7.18;;;6.50;;
45420;SDS011;55462;47.042;8.292;2022-09-24T03:43:17;9.60;;;5.82;;
45420;SDS011;55462;47.042;8.292;2022-09-24T03:45:43;6.50;;;5.93;;
45420;SDS011;55462;47.042;8.292;2022-09-24T03:48:09;6.75;;;6.15;;
45420;SDS011;55462;47.042;8.292;2022-09-24T03:50:35;8.30;;;6.70;;
45420;SDS011;55462;47.042;8.292;2022-09-24T03:53:01;6.47;;;5.90;;
45420;SDS011;55462;47.042;8.292;2022-09-24T03:55:26;10.57;;;6.45;;
45420;SDS011;55462;47.042;8.292;2022-09-24T03:57:51;7.43;;;6.55;;
45420;SDS011;55462;47.042;8.292;2022-09-24T04:00:17;6.88;;;6.28;;
45420;SDS011;55462;47.042;8.292;2022-09-24T04:02:42;5.93;;;5.38;;
45420;SDS011;55462;47.042;8.292;2022-09-24T04:05:07;6.20;;;5.60;;
45420;SDS011;55462;47.042;8.292;2022-09-24T04:07:33;7.30;;;6.57;;
45420;SDS011;55462;47.042;8.292;2022-09-24T04:09:58;4.45;;;4.10;;
45420;SDS011;55462;47.042;8.292;2022-09-24T04:12:23;4.35;;;3.95;;
45420;SDS011;55462;47.042;8.292;2022-09-24T04:14:49;4.78;;;3.60;;
45420;SDS011;55462;47.042;8.292;2022-09-24T04:17:14;3.78;;;3.53;;
45420;SDS011;55462;47.042;8.292;2022-09-24T04:19:41;5.03;;;3.58;;
45420;SDS011;55462;47.042;8.292;2022-09-24T04:22:07;3.85;;;3.55;;
45420;SDS011;55462;47.042;8.292;2022-09-24T04:24:32;3.50;;;3.20;;
45420;SDS011;55462;47.042;8.292;2022-09-24T04:26:58;4.60;;;3.70;;
45420;SDS011;55462;47.042;8.292;2022-09-24T04:29:23;3.83;;;3.53;;
45420;SDS011;55462;47.042;8.292;2022-09-24T04:31:48;4.53;;;3.20;;
45420;SDS011;55462;47.042;8.292;2022-09-24T04:34:14;5.10;;;4.40;;
45420;SDS011;55462;47.042;8.292;2022-09-24T04:36:39;3.33;;;3.13;;
45420;SDS011;55462;47.042;8.292;2022-09-24T04:39:04;4.68;;;3.50;;
45420;SDS011;55462;47.042;8.292;2022-09-24T04:41:30;3.28;;;3.03;;
45420;SDS011;55462;47.042;8.292;2022-09-24T04:43:56;3.33;;;3.03;;
45420;SDS011;55462;47.042;8.292;2022-09-24T04:46:22;3.17;;;2.90;;
45420;SDS011;55462;47.042;8.292;2022-09-24T04:48:47;4.95;;;3.03;;
45420;SDS011;55462;47.042;8.292;2022-09-24T04:51:12;4.10;;;3.70;;
45420;SDS011;55462;47.042;8.292;2022-09-24T04:53:38;4.05;;;3.65;;
45420;SDS011;55462;47.042;8.292;2022-09-24T04:56:03;6.13;;;3.80;;
45420;SDS011;55462;47.042;8.292;2022-09-24T04:58:29;3.90;;;3.60;;
45420;SDS011;55462;47.042;8.292;2022-09-24T05:00:55;3.70;;;3.40;;
45420;SDS011;55462;47.042;8.292;2022-09-24T05:03:20;3.88;;;3.53;;
45420;SDS011;55462;47.042;8.292;2022-09-24T05:05:45;6.15;;;4.13;;
45420;SDS011;55462;47.042;8.292;2022-09-24T05:08:11;4.20;;;3.90;;
45420;SDS011;55462;47.042;8.292;2022-09-24T05:10:37;4.00;;;3.70;;
45420;SDS011;55462;47.042;8.292;2022-09-24T05:13:02;3.88;;;3.58;;
45420;SDS011;55462;47.042;8.292;2022-09-24T05:15:27;3.90;;;3.60;;
45420;SDS011;55462;47.042;8.292;2022-09-24T05:17:53;4.68;;;3.53;;
45420;SDS011;55462;47.042;8.292;2022-09-24T05:20:18;3.83;;;3.38;;
45420;SDS011;55462;47.042;8.292;2022-09-24T05:22:44;3.53;;;3.30;;
45420;SDS011;55462;47.042;8.292;2022-09-24T05:25:11;4.30;;;4.00;;
45420;SDS011;55462;47.042;8.292;2022-09-24T05:27:42;4.55;;;3.88;;
45420;SDS011;55462;47.042;8.292;2022-09-24T05:30:09;3.92;;;3.50;;
45420;SDS011;55462;47.042;8.292;2022-09-24T05:32:34;4.60;;;4.20;;
45420;SDS011;55462;47.042;8.292;2022-09-24T05:35:00;4.78;;;4.38;;
45420;SDS011;55462;47.042;8.292;2022-09-24T05:37:26;4.03;;;3.72;;
45420;SDS011;55462;47.042;8.292;2022-09-24T05:39:51;5.00;;;4.50;;
45420;SDS011;55462;47.042;8.292;2022-09-24T05:42:18;4.53;;;3.80;;
45420;SDS011;55462;47.042;8.292;2022-09-24T05:44:43;3.78;;;3.58;;
45420;SDS011;55462;47.042;8.292;2022-09-24T05:47:08;4.28;;;3.97;;
45420;SDS011;55462;47.042;8.292;2022-09-24T05:49:34;4.07;;;3.85;;
45420;SDS011;55462;47.042;8.292;2022-09-24T05:51:59;4.95;;;4.47;;
45420;SDS011;55462;47.042;8.292;2022-09-24T05:54:25;4.50;;;4.20;;
45420;SDS011;55462;47.042;8.292;2022-09-24T05:56:51;5.55;;;4.15;;
45420;SDS011;55462;47.042;8.292;2022-09-24T05:59:16;4.28;;;3.92;;
45420;SDS011;55462;47.042;8.292;2022-09-24T06:01:42;4.03;;;3.63;;
45420;SDS011;55462;47.042;8.292;2022-09-24T06:04:08;4.32;;;3.97;;
45420;SDS011;55462;47.042;8.292;2022-09-24T06:06:34;4.68;;;3.63;;
45420;SDS011;55462;47.042;8.292;2022-09-24T06:08:59;4.38;;;3.97;;
45420;SDS011;55462;47.042;8.292;2022-09-24T06:11:24;4.03;;;3.75;;
45420;SDS011;55462;47.042;8.292;2022-09-24T06:13:52;4.40;;;3.75;;
45420;SDS011;55462;47.042;8.292;2022-09-24T06:16:17;3.80;;;3.50;;
45420;SDS011;55462;47.042;8.292;2022-09-24T06:18:43;4.50;;;4.10;;
45420;SDS011;55462;47.042;8.292;2022-09-24T06:21:10;5.93;;;3.90;;
45420;SDS011;55462;47.042;8.292;2022-09-24T06:23:36;3.75;;;3.45;;
45420;SDS011;55462;47.042;8.292;2022-09-24T06:26:02;5.40;;;3.78;;
45420;SDS011;55462;47.042;8.292;2022-09-24T06:28:29;4.15;;;3.72;;
45420;SDS011;55462;47.042;8.292;2022-09-24T06:30:54;6.60;;;3.75;;
45420;SDS011;55462;47.042;8.292;2022-09-24T06:33:19;3.97;;;3.15;;
45420;SDS011;55462;47.042;8.292;2022-09-24T06:35:45;3.65;;;3.10;;
45420;SDS011;55462;47.042;8.292;2022-09-24T06:38:11;3.17;;;2.97;;
45420;SDS011;55462;47.042;8.292;2022-09-24T06:40:39;4.05;;;3.30;;
45420;SDS011;55462;47.042;8.292;2022-09-24T06:43:05;4.40;;;3.50;;
45420;SDS011;55462;47.042;8.292;2022-09-24T06:45:30;3.47;;;3.17;;
45420;SDS011;55462;47.042;8.292;2022-09-24T06:47:57;3.70;;;3.40;;
45420;SDS011;55462;47.042;8.292;2022-09-24T06:50:23;3.47;;;3.17;;
45420;SDS011;55462;47.042;8.292;2022-09-24T06:52:50;5.18;;;3.42;;
45420;SDS011;55462;47.042;8.292;2022-09-24T06:55:16;3.70;;;3.40;;
45420;SDS011;55462;47.042;8.292;2022-09-24T06:57:42;3.25;;;3.05;;
45420;SDS011;55462;47.042;8.292;2022-09-24T07:00:07;3.97;;;3.67;;
45420;SDS011;55462;47.042;8.292;2022-09-24T07:02:33;3.50;;;3.30;;
45420;SDS011;55462;47.042;8.292;2022-09-24T07:04:59;3.10;;;2.90;;
45420;SDS011;55462;47.042;8.292;2022-09-24T07:07:24;3.47;;;3.17;;
45420;SDS011;55462;47.042;8.292;2022-09-24T07:09:59;3.70;;;3.08;;
45420;SDS011;55462;47.042;8.292;2022-09-24T07:12:32;3.10;;;2.90;;
45420;SDS011;55462;47.042;8.292;2022-09-24T07:14:58;3.20;;;2.95;;
45420;SDS011;55462;47.042;8.292;2022-09-24T07:17:24;2.83;;;2.63;;
45420;SDS011;55462;47.042;8.292;2022-09-24T07:19:50;2.80;;;2.60;;
45420;SDS011;55462;47.042;8.292;2022-09-24T07:22:16;2.80;;;2.63;;
45420;SDS011;55462;47.042;8.292;2022-09-24T07:24:41;3.28;;;2.95;;
45420;SDS011;55462;47.042;8.292;2022-09-24T07:27:07;5.25;;;3.17;;
45420;SDS011;55462;47.042;8.292;2022-09-24T07:29:32;3.22;;;3.03;;
45420;SDS011;55462;47.042;8.292;2022-09-24T07:31:58;3.55;;;3.10;;
45420;SDS011;55462;47.042;8.292;2022-09-24T07:34:23;4.18;;;3.88;;
45420;SDS011;55462;47.042;8.292;2022-09-24T07:36:49;4.22;;;3.92;;
45420;SDS011;55462;47.042;8.292;2022-09-24T07:39:14;4.72;;;3.75;;
45420;SDS011;55462;47.042;8.292;2022-09-24T07:41:40;3.22;;;3.03;;
45420;SDS011;55462;47.042;8.292;2022-09-24T07:44:06;3.58;;;3.38;;
45420;SDS011;55462;47.042;8.292;2022-09-24T07:46:32;3.47;;;3.15;;
45420;SDS011;55462;47.042;8.292;2022-09-24T07:48:57;4.10;;;3.10;;
45420;SDS011;55462;47.042;8.292;2022-09-24T07:51:23;3.13;;;2.92;;
45420;SDS011;55462;47.042;8.292;2022-09-24T07:53:51;3.75;;;3.45;;
45420;SDS011;55462;47.042;8.292;2022-09-24T07:56:16;4.28;;;3.08;;
45420;SDS011;55462;47.042;8.292;2022-09-24T07:58:41;3.67;;;3.40;;
45420;SDS011;55462;47.042;8.292;2022-09-24T08:01:07;3.50;;;3.20;;
45420;SDS011;55462;47.042;8.292;2022-09-24T08:03:32;5.38;;;3.72;;
45420;SDS011;55462;47.042;8.292;2022-09-24T08:05:58;4.38;;;3.97;;
45420;SDS011;55462;47.042;8.292;2022-09-24T08:08:25;4.10;;;3.70;;
45420;SDS011;55462;47.042;8.292;2022-09-24T08:10:50;4.20;;;3.80;;
45420;SDS011;55462;47.042;8.292;2022-09-24T08:13:16;3.40;;;3.15;;
45420;SDS011;55462;47.042;8.292;2022-09-24T08:15:41;4.00;;;3.60;;
45420;SDS011;55462;47.042;8.292;2022-09-24T08:18:07;4.15;;;3.85;;
45420;SDS011;55462;47.042;8.292;2022-09-24T08:20:33;3.53;;;3.22;;
45420;SDS011;55462;47.042;8.292;2022-09-24T08:23:04;3.20;;;3.00;;
45420;SDS011;55462;47.042;8.292;2022-09-24T08:25:31;3.40;;;3.10;;
45420;SDS011;55462;47.042;8.292;2022-09-24T08:28:03;3.10;;;2.85;;
45420;SDS011;55462;47.042;8.292;2022-09-24T08:30:30;3.47;;;3.20;;
45420;SDS011;55462;47.042;8.292;2022-09-24T08:32:56;3.08;;;2.80;;
45420;SDS011;55462;47.042;8.292;2022-09-24T08:35:22;3.20;;;2.95;;
45420;SDS011;55462;47.042;8.292;2022-09-24T08:37:48;3.10;;;2.90;;
45420;SDS011;55462;47.042;8.292;2022-09-24T08:40:15;3.67;;;3.08;;
45420;SDS011;55462;47.042;8.292;2022-09-24T08:45:33;3.78;;;3.47;;
45420;SDS011;55462;47.042;8.292;2022-09-24T08:48:27;3.67;;;3.28;;
45420;SDS011;55462;47.042;8.292;2022-09-24T08:50:57;4.05;;;3.47;;
45420;SDS011;55462;47.042;8.292;2022-09-24T08:55:57;3.45;;;3.20;;
45420;SDS011;55462;47.042;8.292;2022-09-24T08:58:25;3.30;;;2.90;;
45420;SDS011;55462;47.042;8.292;2022-09-24T09:00:57;3.67;;;2.70;;
45420;SDS011;55462;47.042;8.292;2022-09-24T09:06:02;2.47;;;2.38;;
45420;SDS011;55462;47.042;8.292;2022-09-24T09:11:23;2.83;;;2.65;;
45420;SDS011;55462;47.042;8.292;2022-09-24T09:14:28;3.55;;;3.03;;
45420;SDS011;55462;47.042;8.292;2022-09-24T09:16:51;2.58;;;2.38;;
45420;SDS011;55462;47.042;8.292;2022-09-24T09:19:18;3.83;;;2.45;;
45420;SDS011;55462;47.042;8.292;2022-09-24T09:21:49;2.90;;;2.70;;
45420;SDS011;55462;47.042;8.292;2022-09-24T09:24:19;3.05;;;2.85;;
45420;SDS011;55462;47.042;8.292;2022-09-24T09:26:57;2.95;;;2.67;;
45420;SDS011;55462;47.042;8.292;2022-09-24T09:29:22;3.03;;;2.83;;
45420;SDS011;55462;47.042;8.292;2022-09-24T09:32:07;3.35;;;2.85;;
45420;SDS011;55462;47.042;8.292;2022-09-24T09:35:20;2.80;;;2.60;;
45420;SDS011;55462;47.042;8.292;2022-09-24T09:43:04;2.60;;;2.35;;
45420;SDS011;55462;47.042;8.292;2022-09-24T09:45:55;3.00;;;2.80;;
45420;SDS011;55462;47.042;8.292;2022-09-24T09:48:21;2.90;;;2.70;;
45420;SDS011;55462;47.042;8.292;2022-09-24T09:50:49;2.35;;;2.25;;
45420;SDS011;55462;47.042;8.292;2022-09-24T09:53:17;3.42;;;3.05;;
45420;SDS011;55462;47.042;8.292;2022-09-24T09:55:50;3.08;;;2.88;;
45420;SDS011;55462;47.042;8.292;2022-09-24T09:58:26;3.05;;;2.85;;
45420;SDS011;55462;47.042;8.292;2022-09-24T10:01:08;3.00;;;2.65;;
45420;SDS011;55462;47.042;8.292;2022-09-24T10:06:08;3.17;;;2.88;;
45420;SDS011;55462;47.042;8.292;2022-09-24T10:08:35;3.03;;;2.80;;
45420;SDS011;55462;47.042;8.292;2022-09-24T10:11:01;2.70;;;2.50;;
45420;SDS011;55462;47.042;8.292;2022-09-24T10:13:27;3.30;;;2.80;;
45420;SDS011;55462;47.042;8.292;2022-09-24T10:15:59;3.92;;;3.63;;
45420;SDS011;55462;47.042;8.292;2022-09-24T10:18:32;4.00;;;3.70;;
45420;SDS011;55462;47.042;8.292;2022-09-24T10:20:58;4.00;;;3.63;;
45420;SDS011;55462;47.042;8.292;2022-09-24T10:23:40;3.58;;;3.28;;
45420;SDS011;55462;47.042;8.292;2022-09-24T10:26:06;3.53;;;3.33;;
45420;SDS011;55462;47.042;8.292;2022-09-24T10:28:39;3.40;;;3.20;;
45420;SDS011;55462;47.042;8.292;2022-09-24T10:31:25;4.03;;;3.55;;
45420;SDS011;55462;47.042;8.292;2022-09-24T10:33:54;3.83;;;3.63;;
45420;SDS011;55462;47.042;8.292;2022-09-24T10:36:24;3.97;;;3.67;;
45420;SDS011;55462;47.042;8.292;2022-09-24T10:39:01;3.45;;;3.25;;
45420;SDS011;55462;47.042;8.292;2022-09-24T10:41:27;3.35;;;3.10;;
45420;SDS011;55462;47.042;8.292;2022-09-24T10:43:54;3.38;;;3.17;;
45420;SDS011;55462;47.042;8.292;2022-09-24T10:56:48;4.80;;;4.40;;
45420;SDS011;55462;47.042;8.292;2022-09-24T11:01:52;4.40;;;4.00;;
45420;SDS011;55462;47.042;8.292;2022-09-24T11:18:09;3.03;;;2.83;;
45420;SDS011;55462;47.042;8.292;2022-09-24T11:20:49;2.80;;;2.70;;
45420;SDS011;55462;47.042;8.292;2022-09-24T11:23:28;3.17;;;2.97;;
45420;SDS011;55462;47.042;8.292;2022-09-24T11:39:33;2.97;;;2.78;;
45420;SDS011;55462;47.042;8.292;2022-09-24T11:42:25;2.97;;;2.72;;
45420;SDS011;55462;47.042;8.292;2022-09-24T11:47:33;2.78;;;2.63;;
45420;SDS011;55462;47.042;8.292;2022-09-24T11:52:42;2.63;;;2.53;;
45420;SDS011;55462;47.042;8.292;2022-09-24T11:55:40;3.10;;;2.90;;
45420;SDS011;55462;47.042;8.292;2022-09-24T12:00:54;3.00;;;2.80;;
45420;SDS011;55462;47.042;8.292;2022-09-24T12:03:22;3.00;;;2.80;;
45420;SDS011;55462;47.042;8.292;2022-09-24T12:06:26;2.47;;;2.30;;
45420;SDS011;55462;47.042;8.292;2022-09-24T12:08:57;2.95;;;2.78;;
45420;SDS011;55462;47.042;8.292;2022-09-24T12:11:38;2.50;;;2.30;;
45420;SDS011;55462;47.042;8.292;2022-09-24T12:14:23;2.72;;;2.58;;
45420;SDS011;55462;47.042;8.292;2022-09-24T12:16:54;3.00;;;2.80;;
45420;SDS011;55462;47.042;8.292;2022-09-24T12:19:24;3.00;;;2.80;;
45420;SDS011;55462;47.042;8.292;2022-09-24T12:21:51;2.97;;;2.85;;
45420;SDS011;55462;47.042;8.292;2022-09-24T12:26:42;3.55;;;3.33;;
45420;SDS011;55462;47.042;8.292;2022-09-24T12:29:20;3.50;;;3.30;;
45420;SDS011;55462;47.042;8.292;2022-09-24T12:38:31;3.22;;;3.03;;
45420;SDS011;55462;47.042;8.292;2022-09-24T12:44:05;3.30;;;3.10;;
45420;SDS011;55462;47.042;8.292;2022-09-24T12:51:48;3.00;;;2.78;;
45420;SDS011;55462;47.042;8.292;2022-09-24T12:54:19;2.47;;;2.38;;
45420;SDS011;55462;47.042;8.292;2022-09-24T12:56:48;2.80;;;2.70;;
45420;SDS011;55462;47.042;8.292;2022-09-24T12:59:24;3.33;;;2.90;;
45420;SDS011;55462;47.042;8.292;2022-09-24T13:01:50;3.40;;;3.10;;
45420;SDS011;55462;47.042;8.292;2022-09-24T13:06:41;3.30;;;3.10;;
45420;SDS011;55462;47.042;8.292;2022-09-24T13:12:03;3.40;;;3.10;;
45420;SDS011;55462;47.042;8.292;2022-09-24T13:14:42;2.97;;;2.78;;
45420;SDS011;55462;47.042;8.292;2022-09-24T13:17:14;3.20;;;2.90;;
45420;SDS011;55462;47.042;8.292;2022-09-24T13:19:40;3.25;;;3.05;;
45420;SDS011;55462;47.042;8.292;2022-09-24T13:27:35;3.13;;;2.80;;
45420;SDS011;55462;47.042;8.292;2022-09-24T13:32:35;2.45;;;2.35;;
45420;SDS011;55462;47.042;8.292;2022-09-24T13:35:04;2.53;;;2.42;;
45420;SDS011;55462;47.042;8.292;2022-09-24T13:37:40;2.33;;;2.22;;
45420;SDS011;55462;47.042;8.292;2022-09-24T13:40:26;2.20;;;2.00;;
45420;SDS011;55462;47.042;8.292;2022-09-24T13:45:41;2.30;;;2.20;;
45420;SDS011;55462;47.042;8.292;2022-09-24T13:48:42;4.03;;;2.42;;
45420;SDS011;55462;47.042;8.292;2022-09-24T13:51:03;2.47;;;2.28;;
45420;SDS011;55462;47.042;8.292;2022-09-24T13:53:35;2.55;;;2.35;;
45420;SDS011;55462;47.042;8.292;2022-09-24T13:56:04;4.40;;;2.83;;
45420;SDS011;55462;47.042;8.292;2022-09-24T13:58:35;3.00;;;2.80;;
45420;SDS011;55462;47.042;8.292;2022-09-24T14:01:13;3.80;;;3.50;;
45420;SDS011;55462;47.042;8.292;2022-09-24T14:03:53;3.42;;;3.13;;
45420;SDS011;55462;47.042;8.292;2022-09-24T14:06:28;2.80;;;2.70;;
45420;SDS011;55462;47.042;8.292;2022-09-24T14:08:57;2.95;;;2.28;;
45420;SDS011;55462;47.042;8.292;2022-09-24T14:11:22;2.75;;;2.60;;
45420;SDS011;55462;47.042;8.292;2022-09-24T14:13:51;3.35;;;3.15;;
45420;SDS011;55462;47.042;8.292;2022-09-24T14:16:22;2.97;;;2.78;;
45420;SDS011;55462;47.042;8.292;2022-09-24T14:18:59;3.08;;;2.88;;
45420;SDS011;55462;47.042;8.292;2022-09-24T14:21:26;2.78;;;2.60;;
45420;SDS011;55462;47.042;8.292;2022-09-24T14:23:57;3.30;;;3.10;;
45420;SDS011;55462;47.042;8.292;2022-09-24T14:26:32;3.10;;;2.90;;
45420;SDS011;55462;47.042;8.292;2022-09-24T14:29:10;2.85;;;2.75;;
45420;SDS011;55462;47.042;8.292;2022-09-24T14:31:42;3.20;;;3.00;;
45420;SDS011;55462;47.042;8.292;2022-09-24T14:36:52;2.80;;;2.60;;
45420;SDS011;55462;47.042;8.292;2022-09-24T14:39:19;3.03;;;2.83;;
45420;SDS011;55462;47.042;8.292;2022-09-24T14:41:48;3.35;;;3.08;;
45420;SDS011;55462;47.042;8.292;2022-09-24T14:44:26;3.00;;;2.80;;
45420;SDS011;55462;47.042;8.292;2022-09-24T14:46:52;3.50;;;3.30;;
45420;SDS011;55462;47.042;8.292;2022-09-24T14:49:25;3.15;;;2.83;;
45420;SDS011;55462;47.042;8.292;2022-09-24T14:51:53;2.78;;;2.67;;
45420;SDS011;55462;47.042;8.292;2022-09-24T14:54:38;2.97;;;2.78;;
45420;SDS011;55462;47.042;8.292;2022-09-24T14:57:37;3.42;;;3.13;;
45420;SDS011;55462;47.042;8.292;2022-09-24T15:05:28;3.30;;;3.10;;
45420;SDS011;55462;47.042;8.292;2022-09-24T15:10:53;2.63;;;2.53;;
45420;SDS011;55462;47.042;8.292;2022-09-24T15:13:24;2.50;;;2.40;;
45420;SDS011;55462;47.042;8.292;2022-09-24T15:21:44;2.55;;;2.45;;
45420;SDS011;55462;47.042;8.292;2022-09-24T15:24:11;2.65;;;2.53;;
45420;SDS011;55462;47.042;8.292;2022-09-24T15:26:37;3.53;;;2.53;;
45420;SDS011;55462;47.042;8.292;2022-09-24T15:29:03;2.78;;;2.63;;
45420;SDS011;55462;47.042;8.292;2022-09-24T15:31:30;3.20;;;2.90;;
45420;SDS011;55462;47.042;8.292;2022-09-24T15:33:56;3.17;;;2.97;;
45420;SDS011;55462;47.042;8.292;2022-09-24T15:36:21;3.03;;;2.80;;
45420;SDS011;55462;47.042;8.292;2022-09-24T15:38:48;3.00;;;2.80;;
45420;SDS011;55462;47.042;8.292;2022-09-24T15:41:14;3.10;;;2.90;;
45420;SDS011;55462;47.042;8.292;2022-09-24T15:43:39;2.92;;;2.72;;
45420;SDS011;55462;47.042;8.292;2022-09-24T15:46:04;3.00;;;2.80;;
45420;SDS011;55462;47.042;8.292;2022-09-24T15:48:30;2.65;;;2.53;;
45420;SDS011;55462;47.042;8.292;2022-09-24T15:50:55;3.20;;;3.00;;
45420;SDS011;55462;47.042;8.292;2022-09-24T15:53:22;4.70;;;2.60;;
45420;SDS011;55462;47.042;8.292;2022-09-24T15:55:51;3.10;;;2.90;;
45420;SDS011;55462;47.042;8.292;2022-09-24T15:58:17;2.65;;;2.55;;
45420;SDS011;55462;47.042;8.292;2022-09-24T16:00:43;2.10;;;2.00;;
45420;SDS011;55462;47.042;8.292;2022-09-24T16:03:11;2.70;;;2.50;;
45420;SDS011;55462;47.042;8.292;2022-09-24T16:05:42;3.42;;;2.70;;
45420;SDS011;55462;47.042;8.292;2022-09-24T16:08:07;2.83;;;2.63;;
45420;SDS011;55462;47.042;8.292;2022-09-24T16:10:32;2.83;;;2.65;;
45420;SDS011;55462;47.042;8.292;2022-09-24T16:12:59;2.80;;;2.60;;
45420;SDS011;55462;47.042;8.292;2022-09-24T16:15:24;2.60;;;2.50;;
45420;SDS011;55462;47.042;8.292;2022-09-24T16:17:49;2.80;;;2.60;;
45420;SDS011;55462;47.042;8.292;2022-09-24T16:20:15;2.90;;;2.70;;
45420;SDS011;55462;47.042;8.292;2022-09-24T16:22:40;2.60;;;2.47;;
45420;SDS011;55462;47.042;8.292;2022-09-24T16:25:06;2.45;;;2.35;;
45420;SDS011;55462;47.042;8.292;2022-09-24T16:27:31;2.60;;;2.50;;
45420;SDS011;55462;47.042;8.292;2022-09-24T16:29:59;2.85;;;2.60;;
45420;SDS011;55462;47.042;8.292;2022-09-24T16:32:24;3.10;;;2.80;;
45420;SDS011;55462;47.042;8.292;2022-09-24T16:34:49;3.28;;;2.65;;
45420;SDS011;55462;47.042;8.292;2022-09-24T16:37:15;3.33;;;3.13;;
45420;SDS011;55462;47.042;8.292;2022-09-24T16:39:42;3.35;;;3.05;;
45420;SDS011;55462;47.042;8.292;2022-09-24T16:42:07;2.80;;;2.70;;
45420;SDS011;55462;47.042;8.292;2022-09-24T16:44:33;4.20;;;3.90;;
45420;SDS011;55462;47.042;8.292;2022-09-24T16:46:58;3.53;;;3.33;;
45420;SDS011;55462;47.042;8.292;2022-09-24T16:49:24;3.90;;;3.60;;
45420;SDS011;55462;47.042;8.292;2022-09-24T16:51:49;3.42;;;3.20;;
45420;SDS011;55462;47.042;8.292;2022-09-24T16:54:14;3.38;;;3.17;;
45420;SDS011;55462;47.042;8.292;2022-09-24T16:56:40;3.97;;;3.30;;
45420;SDS011;55462;47.042;8.292;2022-09-24T16:59:05;3.60;;;3.40;;
45420;SDS011;55462;47.042;8.292;2022-09-24T17:01:31;3.40;;;3.20;;
45420;SDS011;55462;47.042;8.292;2022-09-24T17:03:56;3.05;;;2.90;;
45420;SDS011;55462;47.042;8.292;2022-09-24T17:06:23;3.33;;;3.03;;
45420;SDS011;55462;47.042;8.292;2022-09-24T17:08:50;3.45;;;3.25;;
45420;SDS011;55462;47.042;8.292;2022-09-24T17:11:35;3.95;;;3.75;;
45420;SDS011;55462;47.042;8.292;2022-09-24T17:14:01;4.13;;;3.92;;
45420;SDS011;55462;47.042;8.292;2022-09-24T17:16:26;3.75;;;3.50;;
45420;SDS011;55462;47.042;8.292;2022-09-24T17:18:52;3.42;;;3.22;;